Time;durP1;ratioP1;P1;durP2;ratioP2;P2;SDS_P1;SDS_P2;PMS_P1;PMS_P2;Temp;Humidity;BMP_temperature;BMP_pressure;BME280_temperature;BME280_humidity;BME280_pressure;Samples;Min_cycle;Max_cycle;Signal;HPM_P1;HPM_P2
2023/04/18 00:01:46;;;;;;;28.83;16.30;;;5.00;99.90;;;;;;5182373;28;20675;-51
2023/04/18 00:04:17;;;;;;;29.43;16.70;;;5.00;99.90;;;;;;5175804;28;20180;-52
2023/04/18 00:06:48;;;;;;;26.17;16.90;;;5.00;99.90;;;;;;5192944;28;20180;-49
2023/04/18 00:09:19;;;;;;;24.87;16.00;;;5.00;99.90;;;;;;5175799;28;20433;-51
2023/04/18 00:11:50;;;;;;;31.70;16.70;;;5.00;99.90;;;;;;5175050;28;20440;-52
2023/04/18 00:14:21;;;;;;;35.00;17.60;;;5.00;99.90;;;;;;5180259;28;20274;-50
2023/04/18 00:16:52;;;;;;;25.33;17.37;;;5.00;99.90;;;;;;5175363;28;20516;-51
2023/04/18 00:19:23;;;;;;;33.33;16.20;;;4.90;99.90;;;;;;5173279;28;20435;-51
2023/04/18 00:21:54;;;;;;;25.27;16.40;;;4.90;99.90;;;;;;5172214;28;20834;-50
2023/04/18 00:24:25;;;;;;;22.40;14.47;;;4.90;99.90;;;;;;5178420;28;20234;-52
2023/04/18 00:26:56;;;;;;;22.87;15.23;;;4.90;99.90;;;;;;5177617;28;20440;-52
2023/04/18 00:29:30;;;;;;;26.30;16.60;;;4.80;99.90;;;;;;5178715;28;20648;-52
2023/04/18 00:32:01;;;;;;;24.57;17.17;;;4.80;99.90;;;;;;5175831;28;20572;-51
2023/04/18 00:34:31;;;;;;;24.13;15.93;;;4.80;99.90;;;;;;5171676;28;20441;-53
2023/04/18 00:37:02;;;;;;;24.50;16.10;;;4.70;99.90;;;;;;5180611;28;20256;-52
2023/04/18 00:39:34;;;;;;;28.23;16.87;;;4.70;99.90;;;;;;5181220;28;20314;-51
2023/04/18 00:42:05;;;;;;;32.87;18.03;;;4.70;99.90;;;;;;5173197;28;20588;-51
2023/04/18 00:44:36;;;;;;;24.70;15.60;;;4.70;99.90;;;;;;5180730;28;20437;-52
2023/04/18 00:47:06;;;;;;;28.77;17.40;;;4.70;99.90;;;;;;5179629;28;20227;-53
2023/04/18 00:49:37;;;;;;;26.13;16.50;;;4.70;99.90;;;;;;5177291;28;20234;-53
2023/04/18 00:52:08;;;;;;;28.53;16.50;;;4.70;99.90;;;;;;5180146;28;20581;-52
2023/04/18 00:54:39;;;;;;;28.47;16.33;;;4.80;99.90;;;;;;5181782;28;20264;-50
2023/04/18 00:57:12;;;;;;;25.70;15.70;;;4.70;99.90;;;;;;5175100;28;20500;-53
2023/04/18 00:59:45;;;;;;;27.57;15.43;;;4.80;99.90;;;;;;5172611;28;21030;-53
2023/04/18 01:02:16;;;;;;;31.93;18.10;;;4.80;99.90;;;;;;5179682;28;20465;-51
2023/04/18 01:04:46;;;;;;;28.23;17.87;;;4.80;99.90;;;;;;5181867;28;20530;-50
2023/04/18 01:07:17;;;;;;;26.93;16.63;;;4.90;99.90;;;;;;5168480;28;20304;-51
2023/04/18 01:09:48;;;;;;;27.30;17.63;;;4.90;99.90;;;;;;5174259;28;20287;-51
2023/04/18 01:12:18;;;;;;;28.20;16.73;;;4.90;99.90;;;;;;5175014;28;20222;-52
2023/04/18 01:14:49;;;;;;;29.43;16.63;;;4.90;99.90;;;;;;5178315;28;20280;-52
2023/04/18 01:17:21;;;;;;;25.37;14.23;;;5.00;99.90;;;;;;5177652;28;20548;-51
2023/04/18 01:19:51;;;;;;;30.67;16.87;;;4.90;99.90;;;;;;5173364;28;20644;-51
2023/04/18 01:22:22;;;;;;;26.80;16.60;;;5.00;99.90;;;;;;5176923;28;20477;-52
2023/04/18 01:24:53;;;;;;;23.30;16.07;;;5.00;99.90;;;;;;5173898;28;20184;-52
2023/04/18 01:27:24;;;;;;;28.00;16.87;;;5.00;99.90;;;;;;5180046;28;20485;-51
2023/04/18 01:29:54;;;;;;;24.80;15.90;;;5.00;99.90;;;;;;5181522;28;20175;-53
2023/04/18 01:32:25;;;;;;;31.30;17.47;;;5.00;99.90;;;;;;5178237;28;20594;-51
2023/04/18 01:34:56;;;;;;;21.40;15.33;;;5.00;99.90;;;;;;5178934;28;20184;-52
2023/04/18 01:37:26;;;;;;;24.63;16.07;;;4.90;99.90;;;;;;5175949;28;20233;-51
2023/04/18 01:39:57;;;;;;;22.70;14.97;;;4.90;99.90;;;;;;5177039;28;20187;-52
2023/04/18 01:42:29;;;;;;;26.67;15.30;;;4.90;99.90;;;;;;5182640;28;20502;-50
2023/04/18 01:44:59;;;;;;;27.23;14.83;;;4.90;99.90;;;;;;5173737;28;20577;-51
2023/04/18 01:47:30;;;;;;;23.87;15.57;;;5.00;99.90;;;;;;5180536;28;20456;-52
2023/04/18 01:50:01;;;;;;;22.53;16.13;;;5.00;99.90;;;;;;5178665;28;20191;-53
2023/04/18 01:52:32;;;;;;;21.80;14.43;;;5.00;99.90;;;;;;5176039;28;20195;-53
2023/04/18 01:55:03;;;;;;;23.90;16.03;;;4.90;99.90;;;;;;5177540;28;20436;-51
2023/04/18 01:57:35;;;;;;;26.17;15.83;;;5.00;99.90;;;;;;5179050;28;20702;-51
2023/04/18 02:00:06;;;;;;;21.00;14.30;;;4.90;99.90;;;;;;5184346;28;20199;-53
2023/04/18 02:02:37;;;;;;;24.30;14.27;;;5.00;99.90;;;;;;5179193;28;21271;-52
2023/04/18 02:05:08;;;;;;;27.67;14.47;;;5.00;99.90;;;;;;5182235;28;20451;-52
2023/04/18 02:07:39;;;;;;;25.90;14.70;;;5.20;99.90;;;;;;5180054;28;20551;-51
2023/04/18 02:10:10;;;;;;;23.40;14.23;;;5.20;99.90;;;;;;5174949;28;20439;-52
2023/04/18 02:12:41;;;;;;;22.87;13.60;;;5.10;99.90;;;;;;5179902;28;20427;-53
2023/04/18 02:15:11;;;;;;;26.73;13.33;;;5.20;99.90;;;;;;5174830;28;20188;-51
2023/04/18 02:17:42;;;;;;;26.23;15.00;;;5.10;99.90;;;;;;5180843;28;20302;-52
2023/04/18 02:20:13;;;;;;;18.80;13.23;;;5.10;99.90;;;;;;5158183;28;20662;-52
2023/04/18 02:22:44;;;;;;;22.27;12.93;;;5.20;99.90;;;;;;5171839;28;20183;-51
2023/04/18 02:25:14;;;;;;;20.07;14.03;;;5.30;99.90;;;;;;5178482;28;20418;-52
2023/04/18 02:27:45;;;;;;;19.97;13.33;;;5.20;99.90;;;;;;5181644;28;20215;-52
2023/04/18 02:30:15;;;;;;;24.57;14.07;;;5.20;99.90;;;;;;5181014;28;20180;-51
2023/04/18 02:32:50;;;;;;;17.10;12.27;;;5.20;99.90;;;;;;5174460;28;20699;-52
2023/04/18 02:35:21;;;;;;;22.87;13.50;;;5.10;99.90;;;;;;5172282;28;20183;-51
2023/04/18 02:37:52;;;;;;;25.33;15.73;;;5.20;99.90;;;;;;5175142;28;20974;-51
2023/04/18 02:40:23;;;;;;;21.43;14.20;;;5.20;99.90;;;;;;5170738;28;20806;-53
2023/04/18 02:42:53;;;;;;;24.80;14.20;;;5.20;99.90;;;;;;5176490;28;20567;-52
2023/04/18 02:45:24;;;;;;;20.97;14.13;;;5.20;99.90;;;;;;5172030;28;20309;-50
2023/04/18 02:47:54;;;;;;;15.27;12.00;;;5.20;99.90;;;;;;5173432;28;20699;-54
2023/04/18 02:50:25;;;;;;;26.37;13.67;;;5.20;99.90;;;;;;5175594;28;20278;-52
2023/04/18 02:52:56;;;;;;;18.83;12.80;;;5.30;99.90;;;;;;5170099;28;20192;-52
2023/04/18 02:55:27;;;;;;;23.33;13.40;;;5.30;99.90;;;;;;5176627;28;20552;-51
2023/04/18 02:57:57;;;;;;;18.27;12.90;;;5.20;99.90;;;;;;5169824;28;20235;-52
2023/04/18 03:00:28;;;;;;;21.40;13.10;;;5.30;99.90;;;;;;5180441;28;20234;-51
2023/04/18 03:02:59;;;;;;;27.63;14.43;;;5.20;99.90;;;;;;5177079;28;20192;-53
2023/04/18 03:05:29;;;;;;;20.33;13.23;;;5.20;99.90;;;;;;5174967;28;20206;-52
2023/04/18 03:08:00;;;;;;;23.93;13.80;;;5.20;99.90;;;;;;5175766;28;20219;-51
2023/04/18 03:10:31;;;;;;;24.23;13.73;;;5.20;99.90;;;;;;5174381;28;20183;-52
2023/04/18 03:13:01;;;;;;;24.57;14.20;;;5.20;99.90;;;;;;5162335;28;20523;-50
2023/04/18 03:15:32;;;;;;;20.93;14.20;;;5.30;99.90;;;;;;5171604;28;20183;-53
2023/04/18 03:18:04;;;;;;;23.27;13.10;;;5.20;99.90;;;;;;5177798;28;20223;-52
2023/04/18 03:20:36;;;;;;;22.27;13.60;;;5.20;99.90;;;;;;5178324;28;20211;-51
2023/04/18 03:23:07;;;;;;;19.90;13.60;;;5.30;99.90;;;;;;5177264;28;20941;-52
2023/04/18 03:25:37;;;;;;;18.27;12.67;;;5.30;99.90;;;;;;5174158;28;20444;-52
2023/04/18 03:28:08;;;;;;;20.43;13.27;;;5.20;99.90;;;;;;5175032;28;20467;-52
2023/04/18 03:30:39;;;;;;;20.33;13.53;;;5.30;99.90;;;;;;5174814;28;20243;-52
2023/04/18 03:33:09;;;;;;;15.77;12.00;;;5.30;99.90;;;;;;5175072;28;20267;-52
2023/04/18 03:35:40;;;;;;;26.10;13.23;;;5.30;99.90;;;;;;5179881;28;20184;-52
2023/04/18 03:38:11;;;;;;;22.10;12.77;;;5.30;99.90;;;;;;5184062;28;20204;-51
2023/04/18 03:40:43;;;;;;;19.90;12.67;;;5.40;99.90;;;;;;5176087;28;20716;-52
2023/04/18 03:43:14;;;;;;;23.67;14.77;;;5.40;99.90;;;;;;5182297;28;20183;-51
2023/04/18 03:45:46;;;;;;;19.90;12.57;;;5.30;99.90;;;;;;5181732;28;20447;-51
2023/04/18 03:48:16;;;;;;;18.27;12.30;;;5.20;99.90;;;;;;5176000;28;20594;-52
2023/04/18 03:50:48;;;;;;;21.30;12.60;;;5.30;99.90;;;;;;5179834;28;20438;-52
2023/04/18 03:53:19;;;;;;;24.73;12.73;;;5.30;99.90;;;;;;5160576;28;20273;-51
2023/04/18 03:55:49;;;;;;;20.80;13.27;;;5.30;99.90;;;;;;5193535;28;20526;-54
2023/04/18 03:58:22;;;;;;;19.33;12.93;;;5.30;99.90;;;;;;5178906;28;20204;-52
2023/04/18 04:00:53;;;;;;;18.80;13.23;;;5.20;99.90;;;;;;5180619;28;20207;-52
2023/04/18 04:03:23;;;;;;;21.90;13.33;;;5.20;99.90;;;;;;5177575;28;20442;-51
2023/04/18 04:05:54;;;;;;;17.07;12.97;;;5.20;99.90;;;;;;5180947;28;20603;-52
2023/04/18 04:08:25;;;;;;;16.83;12.50;;;5.20;99.90;;;;;;5175334;28;20693;-52
2023/04/18 04:10:56;;;;;;;19.40;12.73;;;5.20;99.90;;;;;;5177180;28;20180;-52
2023/04/18 04:13:26;;;;;;;21.43;14.17;;;5.10;99.90;;;;;;5174814;28;20196;-53
2023/04/18 04:15:57;;;;;;;24.93;12.43;;;5.20;99.90;;;;;;5177497;28;20266;-51
2023/04/18 04:18:30;;;;;;;17.63;13.50;;;5.10;99.90;;;;;;5181865;28;20208;-50
2023/04/18 04:21:02;;;;;;;21.03;13.33;;;5.20;99.90;;;;;;5182764;28;20211;-52
2023/04/18 04:23:33;;;;;;;22.00;12.60;;;5.20;99.90;;;;;;5177884;28;20437;-52
2023/04/18 04:26:03;;;;;;;22.30;13.60;;;5.20;99.90;;;;;;5178973;28;20444;-52
2023/04/18 04:28:34;;;;;;;21.47;14.10;;;5.20;99.90;;;;;;5177786;28;20316;-52
2023/04/18 04:31:08;;;;;;;18.30;12.10;;;5.20;99.90;;;;;;5187582;28;20181;-53
2023/04/18 04:33:39;;;;;;;20.30;13.50;;;5.30;99.90;;;;;;5181682;28;20441;-53
2023/04/18 04:36:13;;;;;;;24.50;16.30;;;5.40;99.90;;;;;;5172766;28;20930;-51
2023/04/18 04:38:44;;;;;;;19.37;12.97;;;5.40;99.90;;;;;;5169768;28;20262;-50
2023/04/18 04:41:15;;;;;;;20.90;12.23;;;5.40;99.90;;;;;;5182370;28;20943;-52
2023/04/18 04:43:46;;;;;;;18.57;12.80;;;5.30;99.90;;;;;;5182179;28;20438;-52
2023/04/18 04:46:18;;;;;;;24.07;15.30;;;5.30;99.90;;;;;;5180979;28;20640;-53
2023/04/18 04:48:49;;;;;;;23.73;13.60;;;5.20;99.90;;;;;;5182937;28;21172;-54
2023/04/18 04:51:20;;;;;;;27.17;14.23;;;5.30;99.90;;;;;;5182586;28;20457;-51
2023/04/18 04:53:50;;;;;;;20.43;13.23;;;5.40;99.90;;;;;;5180254;28;20263;-53
2023/04/18 04:56:21;;;;;;;22.63;13.27;;;6.00;99.90;;;;;;5182283;28;20660;-52
2023/04/18 04:58:54;;;;;;;19.70;12.93;;;6.40;99.90;;;;;;5180833;28;20199;-52
2023/04/18 05:01:25;;;;;;;18.73;12.63;;;6.60;99.90;;;;;;5178485;28;20462;-52
2023/04/18 05:03:56;;;;;;;16.80;11.80;;;7.00;99.90;;;;;;5177080;28;20450;-53
2023/04/18 05:06:26;;;;;;;24.63;13.20;;;7.20;99.90;;;;;;5179355;28;20178;-51
2023/04/18 05:08:59;;;;;;;14.97;11.43;;;7.00;99.90;;;;;;5179005;28;20636;-54
2023/04/18 05:11:30;;;;;;;19.30;12.33;;;6.90;99.90;;;;;;5177129;28;20184;-48
2023/04/18 05:14:00;;;;;;;18.23;12.73;;;7.00;99.90;;;;;;5183147;28;20443;-52
2023/04/18 05:16:31;;;;;;;20.00;12.30;;;7.80;99.90;;;;;;5181683;28;20582;-49
2023/04/18 05:19:02;;;;;;;14.10;10.60;;;9.00;99.90;;;;;;5180140;28;20287;-49
2023/04/18 05:21:33;;;;;;;19.80;11.00;;;9.20;99.90;;;;;;5181745;28;20208;-48
2023/04/18 05:24:03;;;;;;;18.50;10.63;;;9.20;99.90;;;;;;5182379;28;20185;-50
2023/04/18 05:26:35;;;;;;;18.87;11.87;;;9.70;99.90;;;;;;5181485;28;20623;-48
2023/04/18 05:29:05;;;;;;;14.60;10.10;;;10.30;99.90;;;;;;5181159;28;20231;-50
2023/04/18 05:31:36;;;;;;;14.67;10.27;;;11.40;99.90;;;;;;5175246;28;20475;-52
2023/04/18 05:34:06;;;;;;;14.13;10.30;;;12.30;99.90;;;;;;5172218;28;20185;-49
2023/04/18 05:36:37;;;;;;;14.63;9.50;;;12.70;99.90;;;;;;5172422;28;20208;-53
2023/04/18 05:39:08;;;;;;;15.70;9.67;;;12.80;99.90;;;;;;5171909;28;20223;-49
2023/04/18 05:41:38;;;;;;;15.10;9.30;;;13.10;99.90;;;;;;5174641;28;20212;-50
2023/04/18 05:44:09;;;;;;;14.20;10.37;;;13.90;97.10;;;;;;5174843;28;20174;-51
2023/04/18 05:46:40;;;;;;;16.97;9.97;;;14.30;95.10;;;;;;5171361;28;20181;-51
2023/04/18 05:49:11;;;;;;;13.33;9.50;;;15.00;89.10;;;;;;5172683;28;20232;-50
2023/04/18 05:51:42;;;;;;;14.17;9.90;;;15.70;81.90;;;;;;5182608;28;20184;-51
2023/04/18 05:54:12;;;;;;;9.60;8.70;;;15.60;77.20;;;;;;5175970;28;20436;-50
2023/04/18 05:56:46;;;;;;;14.53;9.70;;;15.20;75.40;;;;;;5175144;28;20239;-50
2023/04/18 05:59:17;;;;;;;15.03;10.00;;;14.60;78.50;;;;;;5176693;28;20189;-49
2023/04/18 06:01:51;;;;;;;12.03;9.43;;;14.00;84.70;;;;;;5186286;28;20462;-49
2023/04/18 06:04:21;;;;;;;10.83;9.00;;;14.00;82.00;;;;;;5175470;28;20194;-51
2023/04/18 06:06:52;;;;;;;12.43;9.13;;;14.20;84.00;;;;;;5170950;28;20447;-50
2023/04/18 06:09:22;;;;;;;9.63;8.33;;;15.10;78.30;;;;;;5174580;28;20254;-50
2023/04/18 06:11:53;;;;;;;11.23;8.80;;;15.40;74.40;;;;;;5174775;28;20712;-49
2023/04/18 06:14:24;;;;;;;17.23;9.60;;;14.50;77.00;;;;;;5177295;28;20192;-51
2023/04/18 06:16:55;;;;;;;13.53;10.20;;;13.00;84.90;;;;;;5178898;28;20652;-52
2023/04/18 06:19:26;;;;;;;15.67;9.63;;;11.50;95.10;;;;;;5178189;28;20838;-52
2023/04/18 06:21:56;;;;;;;10.90;9.37;;;10.60;99.90;;;;;;5176635;28;20223;-51
2023/04/18 06:24:27;;;;;;;20.73;10.33;;;9.90;99.90;;;;;;5182791;28;20184;-51
2023/04/18 06:26:58;;;;;;;15.23;10.10;;;9.30;99.90;;;;;;5180067;28;20227;-49
2023/04/18 06:29:31;;;;;;;15.63;12.07;;;8.60;99.90;;;;;;5179445;28;20181;-49
2023/04/18 06:32:02;;;;;;;17.17;11.13;;;8.10;99.90;;;;;;5179337;28;20262;-51
2023/04/18 06:34:33;;;;;;;20.83;11.53;;;7.90;99.90;;;;;;5183719;28;20856;-52
2023/04/18 06:37:04;;;;;;;17.17;10.37;;;7.90;99.90;;;;;;5183363;28;20451;-50
2023/04/18 06:39:35;;;;;;;14.40;10.90;;;8.00;99.90;;;;;;5181148;28;20637;-51
2023/04/18 06:42:05;;;;;;;17.53;10.60;;;8.10;99.90;;;;;;5184259;28;20462;-49
2023/04/18 06:44:36;;;;;;;16.43;10.70;;;8.10;99.90;;;;;;5182129;28;20610;-53
2023/04/18 06:47:07;;;;;;;13.17;8.80;;;8.10;99.90;;;;;;5181081;28;20224;-49
2023/04/18 06:49:38;;;;;;;17.83;10.33;;;8.20;99.90;;;;;;5177695;28;20185;-51
2023/04/18 06:52:08;;;;;;;15.73;10.37;;;8.40;99.90;;;;;;5181991;28;20182;-49
2023/04/18 06:54:39;;;;;;;19.23;11.37;;;8.30;99.90;;;;;;5179717;28;20523;-50
2023/04/18 06:57:10;;;;;;;13.23;9.57;;;8.50;99.90;;;;;;5178427;28;20203;-50
2023/04/18 06:59:40;;;;;;;15.93;9.63;;;8.60;99.90;;;;;;5178889;28;20875;-50
2023/04/18 07:02:11;;;;;;;17.87;10.80;;;8.60;99.90;;;;;;5177796;28;20993;-49
2023/04/18 07:04:42;;;;;;;19.97;9.70;;;8.70;99.90;;;;;;5180787;28;20189;-50
2023/04/18 07:07:12;;;;;;;20.50;10.43;;;8.90;99.90;;;;;;5185666;28;20204;-49
2023/04/18 07:09:43;;;;;;;12.70;8.60;;;9.50;99.90;;;;;;5167628;28;20176;-52
2023/04/18 07:12:14;;;;;;;12.87;8.70;;;10.30;99.90;;;;;;5184043;28;20188;-50
2023/04/18 07:14:44;;;;;;;20.73;9.60;;;12.00;99.90;;;;;;5179429;28;20184;-52
2023/04/18 07:17:15;;;;;;;11.60;8.37;;;14.20;99.90;;;;;;5183255;28;21080;-51
2023/04/18 07:19:45;;;;;;;12.10;7.43;;;16.30;87.30;;;;;;5200200;28;20193;-52
2023/04/18 07:22:16;;;;;;;11.13;8.63;;;18.00;70.40;;;;;;5182938;28;20267;-51
2023/04/18 07:24:47;;;;;;;12.30;7.70;;;18.40;62.70;;;;;;5186523;28;20381;-49
2023/04/18 07:27:17;;;;;;;9.00;7.80;;;18.90;58.20;;;;;;5185098;28;20219;-50
2023/04/18 07:29:48;;;;;;;14.57;9.03;;;19.00;55.20;;;;;;5182955;28;20544;-50
2023/04/18 07:32:19;;;;;;;10.60;8.13;;;19.10;55.70;;;;;;5167317;28;20237;-51
2023/04/18 07:34:51;;;;;;;11.53;7.60;;;19.30;54.20;;;;;;5185233;28;20191;-51
2023/04/18 07:37:22;;;;;;;14.10;8.50;;;19.80;52.60;;;;;;5180473;28;20218;-50
2023/04/18 07:39:52;;;;;;;11.57;8.83;;;18.70;53.20;;;;;;5164953;28;20521;-48
2023/04/18 07:42:23;;;;;;;18.70;8.80;;;18.10;54.50;;;;;;5185681;28;20585;-49
2023/04/18 07:44:57;;;;;;;11.07;9.07;;;17.20;56.00;;;;;;5184123;28;20181;-51
2023/04/18 07:47:28;;;;;;;9.77;8.30;;;15.80;59.60;;;;;;5184272;28;20204;-51
2023/04/18 07:49:59;;;;;;;19.20;9.27;;;14.10;65.20;;;;;;5184121;28;20776;-51
2023/04/18 07:52:30;;;;;;;13.63;8.43;;;13.00;86.40;;;;;;5184627;28;20212;-50
2023/04/18 07:55:00;;;;;;;14.47;9.20;;;13.30;89.30;;;;;;5200441;28;21078;-51
2023/04/18 07:57:31;;;;;;;12.77;9.20;;;12.60;92.60;;;;;;5184488;28;20200;-51
2023/04/18 08:00:03;;;;;;;15.80;10.37;;;11.90;98.40;;;;;;5167537;28;20275;-50
2023/04/18 08:02:34;;;;;;;16.30;10.43;;;11.30;99.90;;;;;;5183774;28;20239;-50
2023/04/18 08:05:05;;;;;;;9.93;8.93;;;10.80;99.90;;;;;;5182153;28;20419;-52
2023/04/18 08:07:36;;;;;;;17.13;10.47;;;10.60;99.90;;;;;;5199075;28;20459;-50
2023/04/18 08:10:07;;;;;;;16.10;10.30;;;10.40;99.90;;;;;;5185357;28;20438;-51
2023/04/18 08:12:38;;;;;;;14.03;9.40;;;10.10;99.90;;;;;;5183744;28;20192;-49
2023/04/18 08:15:09;;;;;;;14.13;10.80;;;9.70;99.90;;;;;;5185186;28;20439;-49
2023/04/18 08:17:42;;;;;;;15.53;10.47;;;9.50;99.90;;;;;;5184412;28;20685;-51
2023/04/18 08:20:14;;;;;;;12.27;9.60;;;9.40;99.90;;;;;;5195619;28;20749;-51
2023/04/18 08:22:46;;;;;;;17.47;8.90;;;9.40;99.90;;;;;;5185408;28;20459;-49
2023/04/18 08:25:17;;;;;;;15.23;10.37;;;9.30;99.90;;;;;;5183654;28;20435;-52
2023/04/18 08:27:47;;;;;;;15.40;10.80;;;9.40;99.90;;;;;;5185156;28;20842;-51
2023/04/18 08:30:18;;;;;;;15.57;9.93;;;9.20;99.90;;;;;;5184498;28;20488;-50
2023/04/18 08:32:49;;;;;;;14.40;10.13;;;9.20;99.90;;;;;;5186380;28;20540;-50
2023/04/18 08:35:19;;;;;;;14.37;9.23;;;9.20;99.90;;;;;;5179481;28;20195;-49
2023/04/18 08:37:50;;;;;;;11.63;9.87;;;9.20;99.90;;;;;;5184959;28;20212;-51
2023/04/18 08:40:21;;;;;;;22.33;11.30;;;9.30;99.90;;;;;;5182175;28;20188;-53
2023/04/18 08:42:55;;;;;;;13.80;10.47;;;9.30;99.90;;;;;;5183350;28;20224;-53
2023/04/18 08:45:25;;;;;;;15.83;10.10;;;9.40;99.90;;;;;;5182638;28;20176;-51
2023/04/18 08:48:00;;;;;;;25.23;10.50;;;9.50;99.90;;;;;;5182929;28;20489;-50
2023/04/18 08:50:31;;;;;;;15.87;11.07;;;9.70;99.90;;;;;;5182764;28;20675;-52
2023/04/18 08:53:02;;;;;;;20.53;9.57;;;9.70;99.90;;;;;;5184640;28;20423;-49
2023/04/18 08:55:32;;;;;;;16.33;10.60;;;9.70;99.90;;;;;;5182122;28;20775;-51
2023/04/18 08:58:06;;;;;;;14.00;9.97;;;9.60;99.90;;;;;;5184961;28;20380;-52
2023/04/18 09:00:37;;;;;;;12.17;8.90;;;9.60;99.90;;;;;;5181188;28;20240;-48
2023/04/18 09:03:14;;;;;;;15.83;10.40;;;9.50;99.90;;;;;;5182473;28;20543;-51
2023/04/18 09:06:08;;;;;;;12.50;9.57;;;9.60;99.90;;;;;;5183901;28;20169;-53
2023/04/18 09:08:43;;;;;;;20.63;9.60;;;9.90;99.90;;;;;;5196230;28;20470;-51
2023/04/18 09:11:28;;;;;;;18.50;9.53;;;10.40;99.90;;;;;;5182429;28;20423;-53
2023/04/18 09:13:59;;;;;;;12.70;9.60;;;11.10;99.90;;;;;;5185015;28;20504;-51
2023/04/18 09:16:45;;;;;;;15.63;9.70;;;11.70;99.90;;;;;;5180583;28;20470;-50
2023/04/18 09:19:20;;;;;;;15.43;8.57;;;12.10;99.90;;;;;;5178210;28;20354;-51
2023/04/18 09:21:58;;;;;;;13.97;9.40;;;11.80;99.90;;;;;;5180554;28;20494;-51
2023/04/18 09:24:31;;;;;;;13.93;8.90;;;11.50;99.90;;;;;;5183440;28;20538;-52
2023/04/18 09:27:02;;;;;;;15.77;10.57;;;11.40;99.90;;;;;;5197474;28;20427;-51
2023/04/18 09:29:48;;;;;;;11.97;8.17;;;11.40;99.90;;;;;;5180722;28;20431;-52
2023/04/18 09:32:27;;;;;;;15.70;9.30;;;12.00;99.90;;;;;;5184598;28;20495;-53
2023/04/18 09:35:01;;;;;;;10.30;8.93;;;12.40;99.90;;;;;;5182358;28;20470;-50
2023/04/18 09:37:32;;;;;;;12.57;8.90;;;12.90;99.90;;;;;;5181077;28;20458;-51
2023/04/18 09:40:17;;;;;;;11.03;9.53;;;13.30;99.90;;;;;;5179758;28;20454;-50
2023/04/18 09:42:51;;;;;;;13.63;9.00;;;13.20;99.90;;;;;;5178945;28;21037;-50
2023/04/18 09:45:23;;;;;;;14.20;9.87;;;13.20;99.90;;;;;;5174864;28;20442;-52
2023/04/18 09:47:54;;;;;;;16.50;9.63;;;12.80;99.90;;;;;;5182365;28;20447;-50
2023/04/18 09:50:25;;;;;;;13.20;8.83;;;12.30;99.90;;;;;;5178536;28;20497;-51
2023/04/18 09:52:57;;;;;;;19.10;8.97;;;12.40;99.90;;;;;;5183553;28;20941;-50
2023/04/18 09:55:28;;;;;;;11.90;8.10;;;12.60;99.90;;;;;;5180031;28;20693;-51
2023/04/18 09:58:02;;;;;;;15.70;10.17;;;12.90;99.90;;;;;;5178664;28;20466;-50
2023/04/18 10:00:34;;;;;;;12.20;8.80;;;13.00;99.90;;;;;;5178337;28;20857;-51
2023/04/18 10:03:09;;;;;;;13.37;9.20;;;13.30;99.90;;;;;;5182870;28;20434;-51
2023/04/18 10:05:40;;;;;;;13.80;10.10;;;13.70;99.90;;;;;;5178935;28;20510;-52
2023/04/18 10:08:12;;;;;;;9.80;8.60;;;13.70;99.90;;;;;;5183904;28;20777;-52
2023/04/18 10:10:43;;;;;;;12.90;9.20;;;13.10;99.90;;;;;;5182503;28;20430;-52
2023/04/18 10:13:14;;;;;;;12.13;9.17;;;12.70;99.90;;;;;;5182950;28;20449;-51
2023/04/18 10:15:46;;;;;;;14.63;9.23;;;12.70;99.90;;;;;;5184100;28;20608;-49
2023/04/18 10:18:21;;;;;;;12.87;8.43;;;12.30;99.90;;;;;;5178892;28;20967;-49
2023/04/18 10:21:00;;;;;;;11.50;8.53;;;12.10;99.90;;;;;;5181375;28;20468;-52
2023/04/18 10:23:31;;;;;;;11.77;8.90;;;12.10;99.90;;;;;;5181332;28;20997;-51
2023/04/18 10:26:08;;;;;;;16.63;9.53;;;12.40;99.90;;;;;;5181950;28;20427;-51
2023/04/18 10:28:53;;;;;;;16.27;9.30;;;12.90;99.90;;;;;;5181587;28;20315;-54
2023/04/18 10:31:26;;;;;;;23.97;8.73;;;13.40;99.90;;;;;;5181317;28;20437;-51
2023/04/18 10:33:58;;;;;;;13.90;9.20;;;13.40;99.90;;;;;;5177384;28;20440;-50
2023/04/18 10:36:29;;;;;;;12.17;9.37;;;13.20;99.90;;;;;;5183068;28;20467;-51
2023/04/18 10:39:04;;;;;;;12.77;9.57;;;13.10;99.90;;;;;;5181240;28;20501;-49
2023/04/18 10:41:47;;;;;;;11.10;9.13;;;13.20;99.90;;;;;;5185642;28;20627;-52
2023/04/18 10:44:21;;;;;;;16.87;10.17;;;13.50;99.90;;;;;;5200301;28;20418;-51
2023/04/18 10:46:52;;;;;;;11.23;8.67;;;13.50;99.90;;;;;;5185908;28;20540;-50
2023/04/18 10:49:27;;;;;;;13.83;9.00;;;13.20;99.90;;;;;;5186602;28;20485;-51
2023/04/18 10:52:01;;;;;;;11.07;8.37;;;13.20;99.90;;;;;;5187803;28;20470;-50
2023/04/18 10:54:53;;;;;;;11.13;8.57;;;13.40;99.90;;;;;;5186057;28;20969;-51
2023/04/18 10:57:23;;;;;;;12.53;8.00;;;13.40;99.90;;;;;;5186208;28;20487;-50
2023/04/18 10:59:55;;;;;;;9.67;8.33;;;13.30;99.90;;;;;;5184663;28;20540;-52
2023/04/18 11:02:31;;;;;;;17.73;9.20;;;13.50;99.90;;;;;;5186252;28;20212;-51
2023/04/18 11:05:03;;;;;;;18.83;8.10;;;13.60;99.90;;;;;;5184751;28;20474;-51
2023/04/18 11:07:36;;;;;;;10.67;8.40;;;13.50;99.90;;;;;;5184679;28;20536;-51
2023/04/18 11:10:08;;;;;;;12.43;8.13;;;13.60;99.90;;;;;;5183264;28;20459;-51
2023/04/18 11:12:40;;;;;;;13.30;8.47;;;13.30;99.90;;;;;;5179118;28;20517;-52
2023/04/18 11:15:18;;;;;;;15.20;9.50;;;13.20;99.90;;;;;;5185925;28;20779;-53
2023/04/18 11:18:00;;;;;;;13.93;9.10;;;13.00;99.90;;;;;;5199744;28;20462;-52
2023/04/18 11:20:46;;;;;;;13.87;10.07;;;12.80;99.90;;;;;;5185181;28;20412;-52
2023/04/18 11:23:24;;;;;;;14.37;8.83;;;13.00;99.90;;;;;;5187105;28;20542;-52
2023/04/18 11:25:55;;;;;;;16.77;9.10;;;13.10;99.90;;;;;;5180445;28;20471;-52
2023/04/18 11:28:26;;;;;;;15.70;8.93;;;13.20;99.90;;;;;;5183995;28;20451;-52
2023/04/18 11:30:58;;;;;;;15.30;9.70;;;13.10;99.90;;;;;;5182884;28;20478;-52
2023/04/18 11:33:29;;;;;;;13.27;9.40;;;13.00;99.90;;;;;;5182603;28;20181;-56
2023/04/18 11:36:00;;;;;;;15.60;7.90;;;13.00;99.90;;;;;;5179665;28;20433;-53
2023/04/18 11:38:31;;;;;;;14.80;9.03;;;13.00;99.90;;;;;;5183201;28;20524;-53
2023/04/18 11:41:02;;;;;;;11.23;8.83;;;12.90;99.90;;;;;;5182396;28;20463;-50
2023/04/18 11:43:32;;;;;;;11.50;8.57;;;12.80;99.90;;;;;;5182654;28;20176;-52
2023/04/18 11:46:03;;;;;;;10.20;8.63;;;12.90;99.90;;;;;;5179866;28;20872;-51
2023/04/18 11:48:42;;;;;;;12.93;8.97;;;13.00;99.90;;;;;;5181259;28;20295;-50
2023/04/18 11:51:37;;;;;;;15.17;8.90;;;13.00;99.90;;;;;;5180034;28;21507;-51
2023/04/18 11:54:37;;;;;;;12.23;8.87;;;13.20;99.90;;;;;;5184028;28;20436;-49
2023/04/18 11:57:25;;;;;;;16.53;10.27;;;13.20;99.90;;;;;;5183082;28;20900;-52
2023/04/18 11:59:58;;;;;;;12.77;8.77;;;13.30;99.90;;;;;;5179728;28;20435;-51
2023/04/18 12:02:44;;;;;;;12.33;8.80;;;13.40;99.90;;;;;;5184791;28;20447;-52
2023/04/18 12:05:28;;;;;;;14.10;10.67;;;13.60;99.90;;;;;;5180096;28;20499;-52
2023/04/18 12:08:10;;;;;;;13.33;10.00;;;13.70;99.90;;;;;;5182539;28;20542;-51
2023/04/18 12:10:53;;;;;;;12.83;9.37;;;13.80;99.90;;;;;;5182609;28;20441;-52
2023/04/18 12:13:26;;;;;;;14.33;11.07;;;13.80;99.90;;;;;;5180930;28;20526;-50
2023/04/18 12:15:57;;;;;;;14.70;11.37;;;13.60;99.90;;;;;;5184238;28;20467;-51
2023/04/18 12:18:28;;;;;;;15.43;10.80;;;13.60;99.90;;;;;;5182262;28;20984;-50
2023/04/18 12:21:01;;;;;;;16.43;10.57;;;13.50;99.90;;;;;;5195389;28;20299;-49
2023/04/18 12:23:33;;;;;;;17.77;11.83;;;13.50;99.90;;;;;;5185573;28;20438;-51
2023/04/18 12:26:17;;;;;;;16.80;9.97;;;13.70;99.90;;;;;;5179453;28;20962;-51
2023/04/18 12:28:50;;;;;;;15.00;10.90;;;13.80;99.90;;;;;;5183149;28;20455;-52
2023/04/18 12:31:21;;;;;;;11.93;9.77;;;13.80;99.90;;;;;;5182002;28;20486;-52
2023/04/18 12:33:51;;;;;;;18.20;10.80;;;13.70;99.90;;;;;;5180933;28;20440;-51
2023/04/18 12:36:22;;;;;;;16.53;10.87;;;13.70;99.90;;;;;;5183563;28;21105;-51
2023/04/18 12:38:53;;;;;;;23.07;10.90;;;13.80;99.90;;;;;;5183166;28;20208;-54
2023/04/18 12:41:23;;;;;;;14.60;10.60;;;13.80;99.90;;;;;;5179805;28;20208;-50
2023/04/18 12:43:54;;;;;;;14.33;10.70;;;13.80;99.90;;;;;;5183621;28;20180;-52
2023/04/18 12:46:25;;;;;;;27.97;10.70;;;13.80;99.90;;;;;;5183255;28;20316;-52
2023/04/18 12:48:56;;;;;;;14.87;10.73;;;13.90;99.90;;;;;;5180137;28;20688;-51
2023/04/18 12:51:26;;;;;;;14.73;11.03;;;13.80;99.90;;;;;;5181611;28;20502;-51
2023/04/18 12:53:57;;;;;;;18.30;11.43;;;13.60;99.90;;;;;;5184618;28;20443;-54
2023/04/18 12:56:28;;;;;;;22.10;11.60;;;13.60;99.90;;;;;;5182403;28;20184;-51
2023/04/18 12:58:58;;;;;;;12.97;11.23;;;13.90;99.90;;;;;;5182085;28;20236;-53
2023/04/18 13:01:29;;;;;;;18.23;12.27;;;14.00;99.90;;;;;;5181378;28;20215;-50